N125RH KSAC-KHND
Flight info
| Callsign | N125RH |
|---|---|
| Flight time | 0h 54m |
| Altitude | 33000 |
| Route | DRAGN SHUFL Q13 FUULL GAMES2 |
| Aircraft | C750/M-L/S |
Departure
| Time | 2026-04-29 01:33 |
|---|---|
| Airport | Sacramento Executive Airport (KSAC) |
Arrival
| Time | 2026-04-29 02:27 |
|---|---|
| Airport | Henderson Executive Airport (KHND) |
| Time | Latitude | Longitude | Altitude | Speed | Heading |
|---|---|---|---|---|---|
| 2026-04-29 00:58 | 38.51513 | -121.49975 | 22 ft | 0 kts | 103° |
| 2026-04-29 01:25 | 38.51510 | -121.49946 | 22 ft | 6 kts | 93° |
| 2026-04-29 01:26 | 38.51499 | -121.49898 | 24 ft | 6 kts | 132° |
| 2026-04-29 01:26 | 38.51471 | -121.49864 | 22 ft | 6 kts | 134° |
| 2026-04-29 01:26 | 38.51443 | -121.49823 | 22 ft | 7 kts | 125° |
| 2026-04-29 01:26 | 38.51428 | -121.49760 | 22 ft | 7 kts | 99° |
| 2026-04-29 01:27 | 38.51411 | -121.49713 | 24 ft | 6 kts | 123° |
| 2026-04-29 01:27 | 38.51388 | -121.49675 | 22 ft | 5 kts | 144° |
| 2026-04-29 01:27 | 38.51355 | -121.49668 | 22 ft | 5 kts | 185° |
| 2026-04-29 01:27 | 38.51325 | -121.49678 | 22 ft | 4 kts | 195° |
| 2026-04-29 01:28 | 38.51298 | -121.49687 | 23 ft | 4 kts | 195° |
| 2026-04-29 01:28 | 38.51272 | -121.49697 | 22 ft | 4 kts | 197° |
| 2026-04-29 01:28 | 38.51249 | -121.49707 | 22 ft | 3 kts | 204° |
| 2026-04-29 01:28 | 38.51223 | -121.49736 | 22 ft | 8 kts | 229° |
| 2026-04-29 01:29 | 38.51164 | -121.49774 | 22 ft | 12 kts | 191° |
| 2026-04-29 01:29 | 38.51100 | -121.49760 | 24 ft | 10 kts | 211° |
| 2026-04-29 01:29 | 38.51043 | -121.49807 | 22 ft | 9 kts | 213° |
| 2026-04-29 01:29 | 38.50991 | -121.49852 | 22 ft | 9 kts | 214° |
| 2026-04-29 01:30 | 38.50942 | -121.49894 | 23 ft | 8 kts | 214° |
| 2026-04-29 01:30 | 38.50895 | -121.49934 | 24 ft | 8 kts | 214° |
| 2026-04-29 01:30 | 38.50851 | -121.49972 | 23 ft | 7 kts | 214° |
| 2026-04-29 01:30 | 38.50810 | -121.50008 | 24 ft | 7 kts | 214° |
| 2026-04-29 01:31 | 38.50770 | -121.50042 | 23 ft | 7 kts | 213° |
| 2026-04-29 01:31 | 38.50723 | -121.50073 | 23 ft | 10 kts | 211° |
| 2026-04-29 01:31 | 38.50661 | -121.50119 | 23 ft | 8 kts | 189° |
| 2026-04-29 01:31 | 38.50643 | -121.50116 | 22 ft | 1 kts | 167° |
| 2026-04-29 01:32 | 38.50632 | -121.50113 | 23 ft | 2 kts | 167° |
| 2026-04-29 01:32 | 38.50619 | -121.50109 | 22 ft | 2 kts | 167° |
| 2026-04-29 01:32 | 38.50583 | -121.50099 | 23 ft | 10 kts | 167° |
| 2026-04-29 01:32 | 38.50546 | -121.50049 | 21 ft | 7 kts | 39° |
| 2026-04-29 01:33 | 38.50588 | -121.50020 | 21 ft | 14 kts | 34° |
| 2026-04-29 01:33 | 38.51028 | -121.49653 | 20 ft | 132 kts | 33° |
| 2026-04-29 01:33 | 38.51865 | -121.48909 | 429 ft | 157 kts | 36° |
| 2026-04-29 01:33 | 38.52809 | -121.48022 | 884 ft | 182 kts | 34° |
| 2026-04-29 01:34 | 38.53845 | -121.46858 | 1291 ft | 219 kts | 54° |
| 2026-04-29 01:34 | 38.54272 | -121.44853 | 1782 ft | 253 kts | 86° |
| 2026-04-29 01:34 | 38.54097 | -121.42572 | 2800 ft | 258 kts | 98° |
| 2026-04-29 01:34 | 38.53773 | -121.40304 | 3962 ft | 262 kts | 99° |
| 2026-04-29 01:35 | 38.53458 | -121.37982 | 5041 ft | 268 kts | 98° |
| 2026-04-29 01:35 | 38.53168 | -121.35611 | 6085 ft | 273 kts | 98° |
| 2026-04-29 01:35 | 38.52868 | -121.33194 | 7101 ft | 278 kts | 98° |
| 2026-04-29 01:35 | 38.52555 | -121.30747 | 8193 ft | 282 kts | 99° |
| 2026-04-29 01:36 | 38.52236 | -121.28260 | 9306 ft | 286 kts | 99° |
| 2026-04-29 01:36 | 38.51915 | -121.25735 | 10277 ft | 292 kts | 99° |
| 2026-04-29 01:36 | 38.51577 | -121.23073 | 10652 ft | 317 kts | 99° |
| 2026-04-29 01:36 | 38.51206 | -121.20176 | 10825 ft | 345 kts | 99° |
| 2026-04-29 01:37 | 38.50810 | -121.17090 | 11440 ft | 353 kts | 99° |
| 2026-04-29 01:37 | 38.50413 | -121.13995 | 12317 ft | 354 kts | 99° |
| 2026-04-29 01:37 | 38.50012 | -121.10877 | 13086 ft | 358 kts | 99° |
| 2026-04-29 01:37 | 38.49606 | -121.07719 | 13801 ft | 363 kts | 99° |
| 2026-04-29 01:38 | 38.49194 | -121.04526 | 14465 ft | 368 kts | 98° |
| 2026-04-29 01:38 | 38.48773 | -121.01287 | 15150 ft | 372 kts | 98° |
| 2026-04-29 01:38 | 38.48347 | -120.98014 | 15815 ft | 376 kts | 98° |
| 2026-04-29 01:38 | 38.47917 | -120.94698 | 16501 ft | 380 kts | 98° |
| 2026-04-29 01:39 | 38.47483 | -120.91359 | 17190 ft | 384 kts | 98° |
| 2026-04-29 01:39 | 38.47039 | -120.87974 | 17870 ft | 388 kts | 98° |
| 2026-04-29 01:39 | 38.46592 | -120.84561 | 18550 ft | 392 kts | 98° |
| 2026-04-29 01:39 | 38.46139 | -120.81111 | 19238 ft | 397 kts | 98° |
| 2026-04-29 01:40 | 38.45678 | -120.77619 | 19921 ft | 401 kts | 98° |
| 2026-04-29 01:40 | 38.45213 | -120.74084 | 20591 ft | 406 kts | 98° |
| 2026-04-29 01:40 | 38.44741 | -120.70516 | 21239 ft | 411 kts | 98° |
| 2026-04-29 01:40 | 38.44264 | -120.66909 | 21883 ft | 415 kts | 98° |
| 2026-04-29 01:41 | 38.43780 | -120.63262 | 22499 ft | 419 kts | 98° |
| 2026-04-29 01:41 | 38.43288 | -120.59580 | 23105 ft | 423 kts | 98° |
| 2026-04-29 01:41 | 38.42789 | -120.55856 | 23684 ft | 428 kts | 98° |
| 2026-04-29 01:41 | 38.42293 | -120.52143 | 24249 ft | 432 kts | 98° |
| 2026-04-29 01:42 | 38.41785 | -120.48348 | 24824 ft | 436 kts | 98° |
| 2026-04-29 01:42 | 38.41269 | -120.44518 | 25365 ft | 441 kts | 98° |
| 2026-04-29 01:42 | 38.40747 | -120.40652 | 25891 ft | 445 kts | 98° |
| 2026-04-29 01:42 | 38.40218 | -120.36741 | 26413 ft | 449 kts | 98° |
| 2026-04-29 01:43 | 38.39682 | -120.32799 | 26928 ft | 453 kts | 98° |
| 2026-04-29 01:43 | 38.39143 | -120.28821 | 27414 ft | 458 kts | 98° |
| 2026-04-29 01:43 | 38.38597 | -120.24809 | 27920 ft | 462 kts | 98° |
| 2026-04-29 01:43 | 38.38041 | -120.20758 | 28409 ft | 466 kts | 98° |
| 2026-04-29 01:44 | 38.37480 | -120.16666 | 28901 ft | 470 kts | 99° |
| 2026-04-29 01:44 | 38.36914 | -120.12548 | 29357 ft | 475 kts | 99° |
| 2026-04-29 01:44 | 38.36341 | -120.08388 | 29791 ft | 479 kts | 99° |
| 2026-04-29 01:44 | 38.35761 | -120.04184 | 30218 ft | 484 kts | 99° |
| 2026-04-29 01:45 | 38.35174 | -119.99952 | 30663 ft | 487 kts | 99° |
| 2026-04-29 01:45 | 38.34580 | -119.95683 | 31073 ft | 491 kts | 99° |
| 2026-04-29 01:45 | 38.33983 | -119.91404 | 31662 ft | 490 kts | 99° |
| 2026-04-29 01:45 | 38.33386 | -119.87130 | 32270 ft | 489 kts | 99° |
| 2026-04-29 01:46 | 38.32789 | -119.82866 | 32822 ft | 488 kts | 99° |
| 2026-04-29 01:46 | 38.32189 | -119.78590 | 33059 ft | 496 kts | 99° |
| 2026-04-29 01:46 | 38.31573 | -119.74218 | 33058 ft | 509 kts | 99° |
| 2026-04-29 01:46 | 38.30940 | -119.69729 | 33067 ft | 521 kts | 99° |
| 2026-04-29 01:47 | 38.29628 | -119.60506 | 33072 ft | 534 kts | 99° |
| 2026-04-29 01:47 | 38.28497 | -119.52569 | 33051 ft | 535 kts | 99° |
| 2026-04-29 01:48 | 38.27156 | -119.43227 | 33052 ft | 537 kts | 99° |
| 2026-04-29 01:48 | 38.25807 | -119.33880 | 33051 ft | 537 kts | 100° |
| 2026-04-29 01:49 | 38.24437 | -119.24540 | 33046 ft | 537 kts | 100° |
| 2026-04-29 01:49 | 38.23106 | -119.15254 | 33052 ft | 537 kts | 100° |
| 2026-04-29 01:50 | 38.21719 | -119.05848 | 33058 ft | 538 kts | 101° |
| 2026-04-29 01:50 | 38.20336 | -118.96568 | 33044 ft | 538 kts | 101° |
| 2026-04-29 01:51 | 38.18954 | -118.87200 | 33056 ft | 539 kts | 101° |
| 2026-04-29 01:51 | 38.17559 | -118.77826 | 33056 ft | 541 kts | 102° |
| 2026-04-29 01:52 | 38.16137 | -118.68423 | 33055 ft | 542 kts | 102° |
| 2026-04-29 01:52 | 38.14717 | -118.59002 | 33052 ft | 543 kts | 103° |
| 2026-04-29 01:53 | 38.13279 | -118.49563 | 33050 ft | 545 kts | 103° |
| 2026-04-29 01:53 | 38.11836 | -118.40104 | 33049 ft | 547 kts | 104° |
| 2026-04-29 01:54 | 38.10035 | -118.30763 | 33041 ft | 541 kts | 114° |
| 2026-04-29 01:54 | 38.06583 | -118.22374 | 33057 ft | 534 kts | 127° |
| 2026-04-29 01:55 | 38.02618 | -118.14397 | 33037 ft | 535 kts | 127° |
| 2026-04-29 01:55 | 37.98663 | -118.06432 | 33034 ft | 534 kts | 127° |
| 2026-04-29 01:56 | 37.94686 | -117.98482 | 33033 ft | 534 kts | 127° |
| 2026-04-29 01:56 | 37.90716 | -117.90524 | 33034 ft | 534 kts | 127° |
| 2026-04-29 01:57 | 37.86733 | -117.82596 | 33033 ft | 534 kts | 127° |
| 2026-04-29 01:57 | 37.82775 | -117.74703 | 33033 ft | 535 kts | 127° |
| 2026-04-29 01:58 | 37.78568 | -117.66959 | 33024 ft | 530 kts | 136° |
| 2026-04-29 01:58 | 37.74156 | -117.61634 | 33026 ft | 519 kts | 148° |
| 2026-04-29 01:59 | 37.68477 | -117.56092 | 33048 ft | 521 kts | 148° |
| 2026-04-29 01:59 | 37.62766 | -117.50474 | 33042 ft | 520 kts | 149° |
| 2026-04-29 02:00 | 37.57036 | -117.44900 | 33042 ft | 521 kts | 149° |
| 2026-04-29 02:00 | 37.51298 | -117.39302 | 33037 ft | 521 kts | 149° |
| 2026-04-29 02:01 | 37.45556 | -117.33719 | 33036 ft | 522 kts | 150° |
| 2026-04-29 02:01 | 37.39805 | -117.28139 | 33037 ft | 522 kts | 150° |
| 2026-04-29 02:02 | 37.34020 | -117.22587 | 33027 ft | 522 kts | 151° |
| 2026-04-29 02:02 | 37.28193 | -117.17146 | 33022 ft | 521 kts | 152° |
| 2026-04-29 02:03 | 37.22222 | -117.12057 | 33018 ft | 519 kts | 154° |
| 2026-04-29 02:03 | 37.16235 | -117.07004 | 33019 ft | 519 kts | 155° |
| 2026-04-29 02:04 | 37.10239 | -117.01957 | 33017 ft | 519 kts | 155° |
| 2026-04-29 02:04 | 37.04244 | -116.96919 | 33005 ft | 519 kts | 155° |
| 2026-04-29 02:05 | 36.98245 | -116.91889 | 33005 ft | 519 kts | 155° |
| 2026-04-29 02:05 | 36.92246 | -116.86867 | 32997 ft | 519 kts | 155° |
| 2026-04-29 02:06 | 36.86283 | -116.81884 | 32996 ft | 519 kts | 156° |
| 2026-04-29 02:06 | 36.80276 | -116.76876 | 32986 ft | 520 kts | 156° |
| 2026-04-29 02:07 | 36.74250 | -116.71860 | 32976 ft | 521 kts | 156° |
| 2026-04-29 02:07 | 36.68222 | -116.66852 | 32973 ft | 520 kts | 156° |
| 2026-04-29 02:08 | 36.62171 | -116.61774 | 32954 ft | 524 kts | 154° |
| 2026-04-29 02:08 | 36.59344 | -116.58832 | 32945 ft | 537 kts | 147° |
| 2026-04-29 02:08 | 36.56649 | -116.55613 | 32946 ft | 537 kts | 146° |
| 2026-04-29 02:09 | 36.51221 | -116.49204 | 32953 ft | 538 kts | 147° |
| 2026-04-29 02:09 | 36.48559 | -116.46046 | 32474 ft | 516 kts | 147° |
| 2026-04-29 02:09 | 36.46038 | -116.43020 | 31810 ft | 495 kts | 147° |
| 2026-04-29 02:10 | 36.43598 | -116.40044 | 31168 ft | 490 kts | 147° |
| 2026-04-29 02:10 | 36.41158 | -116.37079 | 30514 ft | 493 kts | 146° |
| 2026-04-29 02:10 | 36.38736 | -116.34090 | 29882 ft | 489 kts | 146° |
| 2026-04-29 02:10 | 36.36352 | -116.31119 | 29268 ft | 484 kts | 146° |
| 2026-04-29 02:11 | 36.33977 | -116.28194 | 28658 ft | 479 kts | 146° |
| 2026-04-29 02:11 | 36.31593 | -116.25296 | 28041 ft | 478 kts | 146° |
| 2026-04-29 02:11 | 36.29254 | -116.22403 | 27424 ft | 476 kts | 143° |
| 2026-04-29 02:11 | 36.27119 | -116.19234 | 26794 ft | 479 kts | 137° |
| 2026-04-29 02:12 | 36.25058 | -116.16008 | 26208 ft | 475 kts | 137° |
| 2026-04-29 02:12 | 36.22985 | -116.12851 | 25649 ft | 471 kts | 138° |
| 2026-04-29 02:12 | 36.20921 | -116.09727 | 25076 ft | 467 kts | 137° |
| 2026-04-29 02:12 | 36.18914 | -116.06640 | 24514 ft | 464 kts | 137° |
| 2026-04-29 02:13 | 36.16903 | -116.03536 | 23950 ft | 460 kts | 136° |
| 2026-04-29 02:13 | 36.14899 | -116.00471 | 23393 ft | 456 kts | 136° |
| 2026-04-29 02:13 | 36.12912 | -115.97448 | 22844 ft | 451 kts | 136° |
| 2026-04-29 02:13 | 36.10980 | -115.94400 | 22291 ft | 449 kts | 133° |
| 2026-04-29 02:14 | 36.09136 | -115.91315 | 21754 ft | 444 kts | 133° |
| 2026-04-29 02:14 | 36.07298 | -115.88275 | 21221 ft | 438 kts | 134° |
| 2026-04-29 02:14 | 36.05271 | -115.85539 | 20663 ft | 426 kts | 143° |
| 2026-04-29 02:14 | 36.03005 | -115.83268 | 20111 ft | 414 kts | 151° |
| 2026-04-29 02:15 | 36.00558 | -115.81491 | 19576 ft | 403 kts | 160° |
| 2026-04-29 02:15 | 35.97989 | -115.80212 | 19045 ft | 395 kts | 167° |
| 2026-04-29 02:15 | 35.95403 | -115.79123 | 18549 ft | 391 kts | 168° |
| 2026-04-29 02:15 | 35.92825 | -115.78095 | 18050 ft | 388 kts | 168° |
| 2026-04-29 02:16 | 35.90266 | -115.77061 | 17555 ft | 386 kts | 167° |
| 2026-04-29 02:16 | 35.87732 | -115.76005 | 17062 ft | 383 kts | 166° |
| 2026-04-29 02:16 | 35.85220 | -115.74963 | 16567 ft | 379 kts | 167° |
| 2026-04-29 02:16 | 35.82728 | -115.73946 | 16069 ft | 376 kts | 167° |
| 2026-04-29 02:17 | 35.80257 | -115.72926 | 15572 ft | 373 kts | 165° |
| 2026-04-29 02:17 | 35.77949 | -115.71431 | 15019 ft | 378 kts | 150° |
| 2026-04-29 02:17 | 35.75977 | -115.69279 | 14490 ft | 381 kts | 136° |
| 2026-04-29 02:17 | 35.74315 | -115.66750 | 14010 ft | 378 kts | 132° |
| 2026-04-29 02:18 | 35.72683 | -115.64235 | 13541 ft | 375 kts | 133° |
| 2026-04-29 02:18 | 35.71059 | -115.61751 | 13077 ft | 371 kts | 131° |
| 2026-04-29 02:18 | 35.69831 | -115.58947 | 12510 ft | 375 kts | 112° |
| 2026-04-29 02:18 | 35.69340 | -115.55824 | 11987 ft | 374 kts | 96° |
| 2026-04-29 02:19 | 35.69283 | -115.52631 | 11539 ft | 371 kts | 93° |
| 2026-04-29 02:19 | 35.69247 | -115.49469 | 11109 ft | 367 kts | 93° |
| 2026-04-29 02:19 | 35.69192 | -115.46440 | 10669 ft | 342 kts | 93° |
| 2026-04-29 02:19 | 35.69134 | -115.43602 | 10234 ft | 322 kts | 93° |
| 2026-04-29 02:20 | 35.69087 | -115.40914 | 9760 ft | 307 kts | 92° |
| 2026-04-29 02:20 | 35.69043 | -115.38334 | 9286 ft | 298 kts | 92° |
| 2026-04-29 02:20 | 35.69007 | -115.35803 | 8811 ft | 293 kts | 90° |
| 2026-04-29 02:20 | 35.69311 | -115.33343 | 8297 ft | 290 kts | 77° |
| 2026-04-29 02:21 | 35.69793 | -115.30941 | 7842 ft | 288 kts | 76° |
| 2026-04-29 02:21 | 35.70468 | -115.28631 | 7373 ft | 287 kts | 65° |
| 2026-04-29 02:21 | 35.71392 | -115.26467 | 6927 ft | 285 kts | 61° |
| 2026-04-29 02:21 | 35.72315 | -115.24323 | 6493 ft | 283 kts | 64° |
| 2026-04-29 02:22 | 35.73113 | -115.22155 | 6416 ft | 276 kts | 66° |
| 2026-04-29 02:22 | 35.73892 | -115.19974 | 6427 ft | 279 kts | 66° |
| 2026-04-29 02:22 | 35.74682 | -115.17880 | 6420 ft | 257 kts | 65° |
| 2026-04-29 02:22 | 35.75418 | -115.15966 | 6399 ft | 241 kts | 64° |
| 2026-04-29 02:23 | 35.76430 | -115.14378 | 6339 ft | 238 kts | 35° |
| 2026-04-29 02:23 | 35.77948 | -115.13679 | 6180 ft | 240 kts | 5° |
| 2026-04-29 02:23 | 35.79588 | -115.13655 | 6063 ft | 230 kts | 359° |
| 2026-04-29 02:23 | 35.81190 | -115.13662 | 5873 ft | 229 kts | 359° |
| 2026-04-29 02:24 | 35.82731 | -115.13648 | 5688 ft | 215 kts | 360° |
| 2026-04-29 02:24 | 35.84154 | -115.13634 | 5591 ft | 196 kts | 360° |
| 2026-04-29 02:24 | 35.85414 | -115.13625 | 5460 ft | 169 kts | 360° |
| 2026-04-29 02:25 | 35.87708 | -115.13611 | 5100 ft | 163 kts | 0° |
| 2026-04-29 02:25 | 35.88859 | -115.13607 | 4915 ft | 161 kts | 359° |
| 2026-04-29 02:25 | 35.89981 | -115.13620 | 4400 ft | 165 kts | 360° |
| 2026-04-29 02:25 | 35.91121 | -115.13685 | 3928 ft | 160 kts | 360° |
| 2026-04-29 02:26 | 35.92155 | -115.13701 | 3652 ft | 141 kts | 3° |
| 2026-04-29 02:26 | 35.93101 | -115.13663 | 3351 ft | 133 kts | 5° |
| 2026-04-29 02:26 | 35.94000 | -115.13639 | 3100 ft | 126 kts | 3° |
| 2026-04-29 02:26 | 35.94865 | -115.13612 | 2874 ft | 123 kts | 4° |
| 2026-04-29 02:27 | 35.95718 | -115.13590 | 2645 ft | 124 kts | 5° |
| 2026-04-29 02:27 | 35.96577 | -115.13554 | 2471 ft | 123 kts | 3° |
| 2026-04-29 02:27 | 35.97323 | -115.13545 | 2450 ft | 85 kts | 359° |
| 2026-04-29 02:27 | 35.97776 | -115.13536 | 2433 ft | 45 kts | 358° |
| 2026-04-29 02:28 | 35.98020 | -115.13557 | 2424 ft | 29 kts | 322° |
| 2026-04-29 02:28 | 35.98006 | -115.13682 | 2423 ft | 11 kts | 195° |
| 2026-04-29 02:28 | 35.97941 | -115.13685 | 2425 ft | 8 kts | 181° |
| 2026-04-29 02:28 | 35.97897 | -115.13687 | 2426 ft | 5 kts | 181° |
| 2026-04-29 02:29 | 35.97870 | -115.13687 | 2428 ft | 3 kts | 181° |
| 2026-04-29 02:29 | 35.97843 | -115.13688 | 2429 ft | 4 kts | 180° |
| 2026-04-29 02:29 | 35.97799 | -115.13688 | 2429 ft | 11 kts | 180° |
| 2026-04-29 02:29 | 35.97697 | -115.13691 | 2433 ft | 18 kts | 178° |
| 2026-04-29 02:30 | 35.97644 | -115.13761 | 2435 ft | 10 kts | 273° |
| 2026-04-29 02:30 | 35.97655 | -115.13790 | 2435 ft | 3 kts | 329° |
| 2026-04-29 02:30 | 35.97688 | -115.13789 | 2432 ft | 7 kts | 2° |
| 2026-04-29 02:30 | 35.97701 | -115.13789 | 2433 ft | 0 kts | 2° |